sensor_id;sensor_type;location;lat;lon;timestamp;P1;durP1;ratioP1;P2;durP2;ratioP2
23406;SDS011;11876;53.438;18.942;2023-10-31T00:01:57;25.17;;;20.95;;
23406;SDS011;11876;53.438;18.942;2023-10-31T00:04:59;27.05;;;20.40;;
23406;SDS011;11876;53.438;18.942;2023-10-31T00:08:02;24.00;;;20.45;;
23406;SDS011;11876;53.438;18.942;2023-10-31T00:11:05;29.35;;;19.35;;
23406;SDS011;11876;53.438;18.942;2023-10-31T00:14:07;23.50;;;19.33;;
23406;SDS011;11876;53.438;18.942;2023-10-31T00:17:30;22.95;;;19.83;;
23406;SDS011;11876;53.438;18.942;2023-10-31T00:20:32;24.30;;;20.15;;
23406;SDS011;11876;53.438;18.942;2023-10-31T00:23:41;23.60;;;20.17;;
23406;SDS011;11876;53.438;18.942;2023-10-31T00:26:44;33.63;;;23.17;;
23406;SDS011;11876;53.438;18.942;2023-10-31T00:29:47;42.35;;;25.63;;
23406;SDS011;11876;53.438;18.942;2023-10-31T00:32:49;35.88;;;25.40;;
23406;SDS011;11876;53.438;18.942;2023-10-31T00:35:52;26.75;;;21.75;;
23406;SDS011;11876;53.438;18.942;2023-10-31T00:38:54;26.60;;;20.40;;
23406;SDS011;11876;53.438;18.942;2023-10-31T00:41:56;31.15;;;24.10;;
23406;SDS011;11876;53.438;18.942;2023-10-31T00:44:59;26.88;;;23.02;;
23406;SDS011;11876;53.438;18.942;2023-10-31T00:48:01;26.67;;;20.45;;
23406;SDS011;11876;53.438;18.942;2023-10-31T00:51:04;26.42;;;21.48;;
23406;SDS011;11876;53.438;18.942;2023-10-31T00:54:06;28.67;;;21.30;;
23406;SDS011;11876;53.438;18.942;2023-10-31T00:57:09;29.30;;;22.80;;
23406;SDS011;11876;53.438;18.942;2023-10-31T01:00:11;32.20;;;22.13;;
23406;SDS011;11876;53.438;18.942;2023-10-31T01:03:14;28.95;;;21.75;;
23406;SDS011;11876;53.438;18.942;2023-10-31T01:06:17;26.58;;;21.67;;
23406;SDS011;11876;53.438;18.942;2023-10-31T01:09:20;22.90;;;20.42;;
23406;SDS011;11876;53.438;18.942;2023-10-31T01:12:22;27.33;;;22.42;;
23406;SDS011;11876;53.438;18.942;2023-10-31T01:15:24;28.08;;;23.27;;
23406;SDS011;11876;53.438;18.942;2023-10-31T01:18:27;32.20;;;22.80;;
23406;SDS011;11876;53.438;18.942;2023-10-31T01:21:29;34.03;;;24.02;;
23406;SDS011;11876;53.438;18.942;2023-10-31T01:24:32;28.33;;;22.88;;
23406;SDS011;11876;53.438;18.942;2023-10-31T01:27:34;31.67;;;25.33;;
23406;SDS011;11876;53.438;18.942;2023-10-31T01:30:38;21.27;;;17.38;;
23406;SDS011;11876;53.438;18.942;2023-10-31T01:33:40;34.75;;;26.02;;
23406;SDS011;11876;53.438;18.942;2023-10-31T01:36:42;27.38;;;22.38;;
23406;SDS011;11876;53.438;18.942;2023-10-31T01:39:45;29.58;;;23.70;;
23406;SDS011;11876;53.438;18.942;2023-10-31T01:45:51;25.70;;;21.92;;
23406;SDS011;11876;53.438;18.942;2023-10-31T01:48:54;23.05;;;20.58;;
23406;SDS011;11876;53.438;18.942;2023-10-31T01:51:57;29.20;;;22.27;;
23406;SDS011;11876;53.438;18.942;2023-10-31T01:54:59;24.23;;;20.52;;
23406;SDS011;11876;53.438;18.942;2023-10-31T01:58:04;21.00;;;18.55;;
23406;SDS011;11876;53.438;18.942;2023-10-31T02:01:07;25.33;;;19.92;;
23406;SDS011;11876;53.438;18.942;2023-10-31T02:04:09;24.23;;;18.77;;
23406;SDS011;11876;53.438;18.942;2023-10-31T02:07:11;18.08;;;15.15;;
23406;SDS011;11876;53.438;18.942;2023-10-31T02:10:14;25.00;;;19.65;;
23406;SDS011;11876;53.438;18.942;2023-10-31T02:13:17;21.10;;;17.25;;
23406;SDS011;11876;53.438;18.942;2023-10-31T02:16:20;19.77;;;17.67;;
23406;SDS011;11876;53.438;18.942;2023-10-31T02:19:22;24.27;;;20.35;;
23406;SDS011;11876;53.438;18.942;2023-10-31T02:22:24;21.40;;;19.17;;
23406;SDS011;11876;53.438;18.942;2023-10-31T02:25:27;22.25;;;18.08;;
23406;SDS011;11876;53.438;18.942;2023-10-31T02:28:29;20.75;;;17.58;;
23406;SDS011;11876;53.438;18.942;2023-10-31T02:31:32;26.17;;;19.45;;
23406;SDS011;11876;53.438;18.942;2023-10-31T02:34:34;22.90;;;17.80;;
23406;SDS011;11876;53.438;18.942;2023-10-31T02:37:38;22.95;;;19.02;;
23406;SDS011;11876;53.438;18.942;2023-10-31T02:40:40;51.78;;;27.98;;
23406;SDS011;11876;53.438;18.942;2023-10-31T02:43:42;59.60;;;32.45;;
23406;SDS011;11876;53.438;18.942;2023-10-31T02:46:45;60.85;;;31.63;;
23406;SDS011;11876;53.438;18.942;2023-10-31T02:49:48;65.25;;;34.78;;
23406;SDS011;11876;53.438;18.942;2023-10-31T02:52:50;63.35;;;32.50;;
23406;SDS011;11876;53.438;18.942;2023-10-31T02:55:53;41.13;;;23.48;;
23406;SDS011;11876;53.438;18.942;2023-10-31T02:58:55;44.47;;;25.95;;
23406;SDS011;11876;53.438;18.942;2023-10-31T03:01:57;30.73;;;21.92;;
23406;SDS011;11876;53.438;18.942;2023-10-31T03:05:00;25.50;;;19.67;;
23406;SDS011;11876;53.438;18.942;2023-10-31T03:08:03;20.90;;;17.37;;
23406;SDS011;11876;53.438;18.942;2023-10-31T03:11:06;23.35;;;17.90;;
23406;SDS011;11876;53.438;18.942;2023-10-31T03:14:08;23.50;;;17.65;;
23406;SDS011;11876;53.438;18.942;2023-10-31T03:17:10;20.20;;;16.48;;
23406;SDS011;11876;53.438;18.942;2023-10-31T03:20:13;21.42;;;16.85;;
23406;SDS011;11876;53.438;18.942;2023-10-31T03:23:15;26.35;;;18.02;;
23406;SDS011;11876;53.438;18.942;2023-10-31T03:26:18;20.23;;;16.45;;
23406;SDS011;11876;53.438;18.942;2023-10-31T03:29:21;19.30;;;16.48;;
23406;SDS011;11876;53.438;18.942;2023-10-31T03:32:23;23.55;;;17.42;;
23406;SDS011;11876;53.438;18.942;2023-10-31T03:35:25;23.88;;;18.98;;
23406;SDS011;11876;53.438;18.942;2023-10-31T03:38:28;29.15;;;18.13;;
23406;SDS011;11876;53.438;18.942;2023-10-31T03:41:30;20.85;;;14.75;;
23406;SDS011;11876;53.438;18.942;2023-10-31T03:44:33;25.35;;;17.40;;
23406;SDS011;11876;53.438;18.942;2023-10-31T03:47:35;21.00;;;16.77;;
23406;SDS011;11876;53.438;18.942;2023-10-31T03:50:37;19.88;;;15.40;;
23406;SDS011;11876;53.438;18.942;2023-10-31T03:53:40;15.98;;;14.38;;
23406;SDS011;11876;53.438;18.942;2023-10-31T03:56:42;15.75;;;13.90;;
23406;SDS011;11876;53.438;18.942;2023-10-31T04:02:49;14.68;;;12.10;;
23406;SDS011;11876;53.438;18.942;2023-10-31T04:05:51;17.05;;;13.90;;
23406;SDS011;11876;53.438;18.942;2023-10-31T04:08:53;17.10;;;12.00;;
23406;SDS011;11876;53.438;18.942;2023-10-31T04:11:56;14.27;;;12.88;;
23406;SDS011;11876;53.438;18.942;2023-10-31T04:14:58;19.30;;;13.15;;
23406;SDS011;11876;53.438;18.942;2023-10-31T04:18:00;17.30;;;14.30;;
23406;SDS011;11876;53.438;18.942;2023-10-31T04:21:03;17.60;;;12.80;;
23406;SDS011;11876;53.438;18.942;2023-10-31T04:24:05;23.58;;;15.35;;
23406;SDS011;11876;53.438;18.942;2023-10-31T04:27:08;15.73;;;12.00;;
23406;SDS011;11876;53.438;18.942;2023-10-31T04:30:10;15.18;;;12.68;;
23406;SDS011;11876;53.438;18.942;2023-10-31T04:33:15;17.10;;;12.95;;
23406;SDS011;11876;53.438;18.942;2023-10-31T04:36:17;14.80;;;12.45;;
23406;SDS011;11876;53.438;18.942;2023-10-31T04:39:20;19.25;;;12.93;;
23406;SDS011;11876;53.438;18.942;2023-10-31T04:42:22;19.23;;;13.40;;
23406;SDS011;11876;53.438;18.942;2023-10-31T04:45:24;15.35;;;12.38;;
23406;SDS011;11876;53.438;18.942;2023-10-31T04:48:27;14.50;;;10.80;;
23406;SDS011;11876;53.438;18.942;2023-10-31T04:51:35;15.13;;;11.43;;
23406;SDS011;11876;53.438;18.942;2023-10-31T04:54:39;16.92;;;12.20;;
23406;SDS011;11876;53.438;18.942;2023-10-31T04:57:42;18.23;;;11.03;;
23406;SDS011;11876;53.438;18.942;2023-10-31T05:00:44;16.52;;;12.07;;
23406;SDS011;11876;53.438;18.942;2023-10-31T05:03:46;15.88;;;11.10;;
23406;SDS011;11876;53.438;18.942;2023-10-31T05:06:57;16.17;;;12.55;;
23406;SDS011;11876;53.438;18.942;2023-10-31T05:09:59;16.17;;;12.30;;
23406;SDS011;11876;53.438;18.942;2023-10-31T05:13:01;15.65;;;12.52;;
23406;SDS011;11876;53.438;18.942;2023-10-31T05:16:04;19.92;;;13.63;;
23406;SDS011;11876;53.438;18.942;2023-10-31T05:19:07;18.50;;;11.63;;
23406;SDS011;11876;53.438;18.942;2023-10-31T05:22:09;11.38;;;10.13;;
23406;SDS011;11876;53.438;18.942;2023-10-31T05:25:11;16.45;;;11.05;;
23406;SDS011;11876;53.438;18.942;2023-10-31T05:28:14;15.45;;;11.68;;
23406;SDS011;11876;53.438;18.942;2023-10-31T05:31:17;16.17;;;11.65;;
23406;SDS011;11876;53.438;18.942;2023-10-31T05:34:19;16.05;;;11.70;;
23406;SDS011;11876;53.438;18.942;2023-10-31T05:37:22;14.07;;;11.02;;
23406;SDS011;11876;53.438;18.942;2023-10-31T05:40:24;12.30;;;10.27;;
23406;SDS011;11876;53.438;18.942;2023-10-31T05:46:31;12.88;;;11.55;;
23406;SDS011;11876;53.438;18.942;2023-10-31T05:49:34;18.08;;;11.43;;
23406;SDS011;11876;53.438;18.942;2023-10-31T05:52:36;13.60;;;10.38;;
23406;SDS011;11876;53.438;18.942;2023-10-31T05:55:39;16.25;;;11.93;;
23406;SDS011;11876;53.438;18.942;2023-10-31T05:58:41;22.55;;;12.15;;
23406;SDS011;11876;53.438;18.942;2023-10-31T06:01:44;15.75;;;11.32;;
23406;SDS011;11876;53.438;18.942;2023-10-31T06:04:47;14.60;;;10.32;;
23406;SDS011;11876;53.438;18.942;2023-10-31T06:07:49;15.90;;;11.10;;
23406;SDS011;11876;53.438;18.942;2023-10-31T06:10:51;12.38;;;10.32;;
23406;SDS011;11876;53.438;18.942;2023-10-31T06:13:54;12.52;;;10.20;;
23406;SDS011;11876;53.438;18.942;2023-10-31T06:16:56;14.93;;;11.48;;
23406;SDS011;11876;53.438;18.942;2023-10-31T06:20:01;18.77;;;12.68;;
23406;SDS011;11876;53.438;18.942;2023-10-31T06:23:04;15.35;;;10.73;;
23406;SDS011;11876;53.438;18.942;2023-10-31T06:26:06;14.85;;;9.95;;
23406;SDS011;11876;53.438;18.942;2023-10-31T06:29:09;12.95;;;9.25;;
23406;SDS011;11876;53.438;18.942;2023-10-31T06:32:18;11.48;;;7.97;;
23406;SDS011;11876;53.438;18.942;2023-10-31T06:35:20;10.48;;;8.27;;
23406;SDS011;11876;53.438;18.942;2023-10-31T06:38:22;11.00;;;9.07;;
23406;SDS011;11876;53.438;18.942;2023-10-31T06:41:25;10.85;;;8.00;;
23406;SDS011;11876;53.438;18.942;2023-10-31T06:44:28;12.23;;;8.98;;
23406;SDS011;11876;53.438;18.942;2023-10-31T06:47:30;13.48;;;8.93;;
23406;SDS011;11876;53.438;18.942;2023-10-31T06:50:33;17.70;;;11.52;;
23406;SDS011;11876;53.438;18.942;2023-10-31T06:53:35;15.90;;;10.27;;
23406;SDS011;11876;53.438;18.942;2023-10-31T06:56:38;11.50;;;7.40;;
23406;SDS011;11876;53.438;18.942;2023-10-31T06:59:40;11.25;;;7.85;;
23406;SDS011;11876;53.438;18.942;2023-10-31T07:02:43;11.68;;;6.63;;
23406;SDS011;11876;53.438;18.942;2023-10-31T07:05:45;8.48;;;7.40;;
23406;SDS011;11876;53.438;18.942;2023-10-31T07:08:48;9.30;;;6.18;;
23406;SDS011;11876;53.438;18.942;2023-10-31T07:11:50;7.15;;;5.85;;
23406;SDS011;11876;53.438;18.942;2023-10-31T07:14:53;7.45;;;5.10;;
23406;SDS011;11876;53.438;18.942;2023-10-31T07:17:55;9.60;;;5.22;;
23406;SDS011;11876;53.438;18.942;2023-10-31T07:20:58;9.75;;;5.70;;
23406;SDS011;11876;53.438;18.942;2023-10-31T07:24:00;6.47;;;4.80;;
23406;SDS011;11876;53.438;18.942;2023-10-31T07:27:02;5.22;;;4.18;;
23406;SDS011;11876;53.438;18.942;2023-10-31T07:30:05;8.35;;;5.45;;
23406;SDS011;11876;53.438;18.942;2023-10-31T07:33:08;5.95;;;5.05;;
23406;SDS011;11876;53.438;18.942;2023-10-31T07:36:11;7.65;;;5.03;;
23406;SDS011;11876;53.438;18.942;2023-10-31T07:39:13;8.63;;;5.03;;
23406;SDS011;11876;53.438;18.942;2023-10-31T07:42:16;9.20;;;4.82;;
23406;SDS011;11876;53.438;18.942;2023-10-31T07:45:18;8.32;;;6.15;;
23406;SDS011;11876;53.438;18.942;2023-10-31T07:48:20;9.93;;;4.93;;
23406;SDS011;11876;53.438;18.942;2023-10-31T07:51:23;8.40;;;5.60;;
23406;SDS011;11876;53.438;18.942;2023-10-31T07:54:26;8.43;;;6.97;;
23406;SDS011;11876;53.438;18.942;2023-10-31T07:57:28;11.13;;;6.13;;
23406;SDS011;11876;53.438;18.942;2023-10-31T08:00:30;9.55;;;5.57;;
23406;SDS011;11876;53.438;18.942;2023-10-31T08:03:34;7.38;;;5.13;;
23406;SDS011;11876;53.438;18.942;2023-10-31T08:06:36;11.93;;;6.38;;
23406;SDS011;11876;53.438;18.942;2023-10-31T08:09:39;13.23;;;6.60;;
23406;SDS011;11876;53.438;18.942;2023-10-31T08:12:41;12.60;;;6.18;;
23406;SDS011;11876;53.438;18.942;2023-10-31T08:15:44;11.05;;;9.38;;
23406;SDS011;11876;53.438;18.942;2023-10-31T08:18:46;11.50;;;5.47;;
23406;SDS011;11876;53.438;18.942;2023-10-31T08:21:48;9.02;;;5.20;;
23406;SDS011;11876;53.438;18.942;2023-10-31T08:24:51;10.55;;;4.80;;
23406;SDS011;11876;53.438;18.942;2023-10-31T08:27:53;15.13;;;7.03;;
23406;SDS011;11876;53.438;18.942;2023-10-31T08:30:55;30.23;;;18.45;;
23406;SDS011;11876;53.438;18.942;2023-10-31T08:33:58;18.55;;;12.95;;
23406;SDS011;11876;53.438;18.942;2023-10-31T08:37:01;23.13;;;13.55;;
23406;SDS011;11876;53.438;18.942;2023-10-31T08:40:04;20.55;;;7.22;;
23406;SDS011;11876;53.438;18.942;2023-10-31T08:43:07;17.25;;;8.48;;
23406;SDS011;11876;53.438;18.942;2023-10-31T08:46:09;12.88;;;9.18;;
23406;SDS011;11876;53.438;18.942;2023-10-31T08:49:12;10.90;;;6.75;;
23406;SDS011;11876;53.438;18.942;2023-10-31T08:52:14;9.18;;;5.78;;
23406;SDS011;11876;53.438;18.942;2023-10-31T08:55:17;12.45;;;6.70;;
23406;SDS011;11876;53.438;18.942;2023-10-31T08:58:20;19.60;;;8.23;;
23406;SDS011;11876;53.438;18.942;2023-10-31T09:01:22;16.73;;;9.85;;
23406;SDS011;11876;53.438;18.942;2023-10-31T09:04:24;11.88;;;6.38;;
23406;SDS011;11876;53.438;18.942;2023-10-31T09:07:27;11.48;;;6.68;;
23406;SDS011;11876;53.438;18.942;2023-10-31T09:10:29;10.70;;;6.80;;
23406;SDS011;11876;53.438;18.942;2023-10-31T09:13:32;18.75;;;10.30;;
23406;SDS011;11876;53.438;18.942;2023-10-31T09:16:34;8.63;;;5.57;;
23406;SDS011;11876;53.438;18.942;2023-10-31T09:19:36;8.15;;;5.10;;
23406;SDS011;11876;53.438;18.942;2023-10-31T09:22:39;6.93;;;5.15;;
23406;SDS011;11876;53.438;18.942;2023-10-31T09:25:41;10.70;;;6.00;;
23406;SDS011;11876;53.438;18.942;2023-10-31T09:28:44;16.35;;;8.90;;
23406;SDS011;11876;53.438;18.942;2023-10-31T09:31:51;15.82;;;7.95;;
23406;SDS011;11876;53.438;18.942;2023-10-31T09:34:54;10.65;;;7.13;;
23406;SDS011;11876;53.438;18.942;2023-10-31T09:37:56;11.50;;;7.07;;
23406;SDS011;11876;53.438;18.942;2023-10-31T09:40:59;17.80;;;9.32;;
23406;SDS011;11876;53.438;18.942;2023-10-31T09:44:01;13.75;;;8.35;;
23406;SDS011;11876;53.438;18.942;2023-10-31T09:47:05;18.63;;;9.27;;
23406;SDS011;11876;53.438;18.942;2023-10-31T09:50:08;13.02;;;6.75;;
23406;SDS011;11876;53.438;18.942;2023-10-31T09:53:11;14.68;;;8.52;;
23406;SDS011;11876;53.438;18.942;2023-10-31T09:56:14;10.77;;;7.65;;
23406;SDS011;11876;53.438;18.942;2023-10-31T09:59:17;9.55;;;6.97;;
23406;SDS011;11876;53.438;18.942;2023-10-31T10:02:19;18.33;;;11.25;;
23406;SDS011;11876;53.438;18.942;2023-10-31T10:05:22;27.13;;;15.77;;
23406;SDS011;11876;53.438;18.942;2023-10-31T10:08:25;10.07;;;8.40;;
23406;SDS011;11876;53.438;18.942;2023-10-31T10:11:27;10.95;;;7.28;;
23406;SDS011;11876;53.438;18.942;2023-10-31T10:14:29;11.25;;;8.82;;
23406;SDS011;11876;53.438;18.942;2023-10-31T10:17:35;11.40;;;8.57;;
23406;SDS011;11876;53.438;18.942;2023-10-31T10:20:42;11.23;;;8.80;;
23406;SDS011;11876;53.438;18.942;2023-10-31T10:23:56;11.70;;;9.80;;
23406;SDS011;11876;53.438;18.942;2023-10-31T10:26:59;8.85;;;7.68;;
23406;SDS011;11876;53.438;18.942;2023-10-31T10:30:02;9.85;;;8.93;;
23406;SDS011;11876;53.438;18.942;2023-10-31T10:36:09;12.73;;;11.43;;
23406;SDS011;11876;53.438;18.942;2023-10-31T10:39:13;11.95;;;10.55;;
23406;SDS011;11876;53.438;18.942;2023-10-31T10:42:18;10.88;;;9.50;;
23406;SDS011;11876;53.438;18.942;2023-10-31T10:45:21;11.82;;;8.85;;
23406;SDS011;11876;53.438;18.942;2023-10-31T10:48:24;10.90;;;9.80;;
23406;SDS011;11876;53.438;18.942;2023-10-31T10:51:29;10.88;;;9.77;;
23406;SDS011;11876;53.438;18.942;2023-10-31T10:58:09;14.82;;;13.23;;
23406;SDS011;11876;53.438;18.942;2023-10-31T11:01:24;13.27;;;11.85;;
23406;SDS011;11876;53.438;18.942;2023-10-31T11:04:27;11.30;;;10.20;;
23406;SDS011;11876;53.438;18.942;2023-10-31T11:07:29;13.70;;;11.40;;
23406;SDS011;11876;53.438;18.942;2023-10-31T11:10:32;9.93;;;8.93;;
23406;SDS011;11876;53.438;18.942;2023-10-31T11:13:35;12.57;;;10.40;;
23406;SDS011;11876;53.438;18.942;2023-10-31T11:16:39;11.32;;;9.73;;
23406;SDS011;11876;53.438;18.942;2023-10-31T11:19:43;10.77;;;9.27;;
23406;SDS011;11876;53.438;18.942;2023-10-31T11:22:46;10.18;;;9.13;;
23406;SDS011;11876;53.438;18.942;2023-10-31T11:25:53;10.45;;;8.52;;
23406;SDS011;11876;53.438;18.942;2023-10-31T11:29:03;8.47;;;7.70;;
23406;SDS011;11876;53.438;18.942;2023-10-31T11:32:10;9.68;;;8.23;;
23406;SDS011;11876;53.438;18.942;2023-10-31T11:35:13;11.15;;;10.05;;
23406;SDS011;11876;53.438;18.942;2023-10-31T11:38:16;10.65;;;9.55;;
23406;SDS011;11876;53.438;18.942;2023-10-31T11:41:18;9.77;;;8.77;;
23406;SDS011;11876;53.438;18.942;2023-10-31T11:44:27;9.98;;;8.52;;
23406;SDS011;11876;53.438;18.942;2023-10-31T11:47:48;9.15;;;8.25;;
23406;SDS011;11876;53.438;18.942;2023-10-31T11:50:51;8.93;;;8.13;;
23406;SDS011;11876;53.438;18.942;2023-10-31T11:53:56;9.90;;;8.95;;
23406;SDS011;11876;53.438;18.942;2023-10-31T11:56:58;11.07;;;9.98;;
23406;SDS011;11876;53.438;18.942;2023-10-31T12:00:01;11.77;;;10.57;;
23406;SDS011;11876;53.438;18.942;2023-10-31T12:03:14;10.80;;;9.70;;
23406;SDS011;11876;53.438;18.942;2023-10-31T12:06:17;11.77;;;9.88;;
23406;SDS011;11876;53.438;18.942;2023-10-31T12:09:21;11.18;;;10.15;;
23406;SDS011;11876;53.438;18.942;2023-10-31T12:12:30;12.27;;;11.07;;
23406;SDS011;11876;53.438;18.942;2023-10-31T12:15:34;13.50;;;12.20;;
23406;SDS011;11876;53.438;18.942;2023-10-31T12:18:37;12.40;;;11.10;;
23406;SDS011;11876;53.438;18.942;2023-10-31T12:21:45;12.00;;;10.77;;
23406;SDS011;11876;53.438;18.942;2023-10-31T12:24:49;12.77;;;11.23;;
23406;SDS011;11876;53.438;18.942;2023-10-31T12:27:52;13.30;;;12.05;;
23406;SDS011;11876;53.438;18.942;2023-10-31T12:30:55;12.45;;;10.50;;
23406;SDS011;11876;53.438;18.942;2023-10-31T12:34:04;13.77;;;11.75;;
23406;SDS011;11876;53.438;18.942;2023-10-31T12:37:07;12.70;;;11.18;;
23406;SDS011;11876;53.438;18.942;2023-10-31T12:40:10;12.63;;;10.60;;
23406;SDS011;11876;53.438;18.942;2023-10-31T12:43:12;10.60;;;9.50;;
23406;SDS011;11876;53.438;18.942;2023-10-31T12:46:25;12.30;;;11.00;;
23406;SDS011;11876;53.438;18.942;2023-10-31T12:49:28;11.27;;;10.18;;
23406;SDS011;11876;53.438;18.942;2023-10-31T12:55:52;10.35;;;9.35;;
23406;SDS011;11876;53.438;18.942;2023-10-31T12:58:58;9.15;;;8.25;;
23406;SDS011;11876;53.438;18.942;2023-10-31T13:02:00;10.15;;;9.02;;
23406;SDS011;11876;53.438;18.942;2023-10-31T13:05:11;9.00;;;8.20;;
23406;SDS011;11876;53.438;18.942;2023-10-31T13:08:15;9.95;;;8.07;;
23406;SDS011;11876;53.438;18.942;2023-10-31T13:11:17;8.25;;;6.72;;
23406;SDS011;11876;53.438;18.942;2023-10-31T13:14:24;7.85;;;7.05;;
23406;SDS011;11876;53.438;18.942;2023-10-31T13:17:27;8.23;;;7.38;;
23406;SDS011;11876;53.438;18.942;2023-10-31T13:20:29;7.10;;;6.43;;
23406;SDS011;11876;53.438;18.942;2023-10-31T13:23:33;8.07;;;6.23;;
23406;SDS011;11876;53.438;18.942;2023-10-31T13:26:35;5.05;;;4.65;;
23406;SDS011;11876;53.438;18.942;2023-10-31T13:29:38;4.97;;;4.47;;
23406;SDS011;11876;53.438;18.942;2023-10-31T13:32:40;4.82;;;4.38;;
23406;SDS011;11876;53.438;18.942;2023-10-31T13:35:43;4.60;;;3.97;;
23406;SDS011;11876;53.438;18.942;2023-10-31T13:38:45;4.00;;;3.60;;
23406;SDS011;11876;53.438;18.942;2023-10-31T13:41:48;5.40;;;3.55;;
23406;SDS011;11876;53.438;18.942;2023-10-31T13:44:50;4.75;;;3.47;;
23406;SDS011;11876;53.438;18.942;2023-10-31T13:47:53;5.93;;;4.07;;
23406;SDS011;11876;53.438;18.942;2023-10-31T13:50:55;4.15;;;3.33;;
23406;SDS011;11876;53.438;18.942;2023-10-31T13:53:57;4.50;;;3.60;;
23406;SDS011;11876;53.438;18.942;2023-10-31T13:57:00;4.68;;;3.22;;
23406;SDS011;11876;53.438;18.942;2023-10-31T14:00:03;4.90;;;3.15;;
23406;SDS011;11876;53.438;18.942;2023-10-31T14:03:12;7.35;;;3.65;;
23406;SDS011;11876;53.438;18.942;2023-10-31T14:06:17;3.63;;;2.72;;
23406;SDS011;11876;53.438;18.942;2023-10-31T14:09:19;3.40;;;2.42;;
23406;SDS011;11876;53.438;18.942;2023-10-31T14:12:23;3.83;;;3.28;;
23406;SDS011;11876;53.438;18.942;2023-10-31T14:15:26;3.67;;;3.05;;
23406;SDS011;11876;53.438;18.942;2023-10-31T14:18:28;3.60;;;3.22;;
23406;SDS011;11876;53.438;18.942;2023-10-31T14:21:31;5.78;;;3.67;;
23406;SDS011;11876;53.438;18.942;2023-10-31T14:24:33;8.15;;;4.80;;
23406;SDS011;11876;53.438;18.942;2023-10-31T14:27:36;4.40;;;4.00;;
23406;SDS011;11876;53.438;18.942;2023-10-31T14:30:39;6.20;;;5.38;;
23406;SDS011;11876;53.438;18.942;2023-10-31T14:33:42;4.63;;;4.20;;
23406;SDS011;11876;53.438;18.942;2023-10-31T14:36:44;5.28;;;4.68;;
23406;SDS011;11876;53.438;18.942;2023-10-31T14:39:47;3.33;;;3.03;;
23406;SDS011;11876;53.438;18.942;2023-10-31T14:42:49;2.70;;;2.50;;
23406;SDS011;11876;53.438;18.942;2023-10-31T14:45:51;3.95;;;3.08;;
23406;SDS011;11876;53.438;18.942;2023-10-31T14:48:55;3.17;;;2.88;;
23406;SDS011;11876;53.438;18.942;2023-10-31T14:51:58;2.15;;;2.00;;
23406;SDS011;11876;53.438;18.942;2023-10-31T14:55:00;2.65;;;2.20;;
23406;SDS011;11876;53.438;18.942;2023-10-31T14:58:03;2.42;;;2.22;;
23406;SDS011;11876;53.438;18.942;2023-10-31T15:01:05;2.55;;;2.17;;
23406;SDS011;11876;53.438;18.942;2023-10-31T15:04:08;8.45;;;2.95;;
23406;SDS011;11876;53.438;18.942;2023-10-31T15:10:14;3.22;;;2.50;;
23406;SDS011;11876;53.438;18.942;2023-10-31T15:13:16;2.88;;;2.55;;
23406;SDS011;11876;53.438;18.942;2023-10-31T15:16:19;2.83;;;2.42;;
23406;SDS011;11876;53.438;18.942;2023-10-31T15:19:21;3.72;;;2.50;;
23406;SDS011;11876;53.438;18.942;2023-10-31T15:22:24;3.65;;;2.72;;
23406;SDS011;11876;53.438;18.942;2023-10-31T15:25:26;3.85;;;3.08;;
23406;SDS011;11876;53.438;18.942;2023-10-31T15:28:28;3.47;;;2.75;;
23406;SDS011;11876;53.438;18.942;2023-10-31T15:31:32;3.65;;;3.35;;
23406;SDS011;11876;53.438;18.942;2023-10-31T15:34:34;4.82;;;2.83;;
23406;SDS011;11876;53.438;18.942;2023-10-31T15:37:40;5.00;;;3.25;;
23406;SDS011;11876;53.438;18.942;2023-10-31T15:40:44;3.58;;;3.28;;
23406;SDS011;11876;53.438;18.942;2023-10-31T15:43:47;4.13;;;2.65;;
23406;SDS011;11876;53.438;18.942;2023-10-31T15:46:49;3.22;;;2.40;;
23406;SDS011;11876;53.438;18.942;2023-10-31T15:49:52;4.22;;;2.13;;
23406;SDS011;11876;53.438;18.942;2023-10-31T15:52:54;2.08;;;1.90;;
23406;SDS011;11876;53.438;18.942;2023-10-31T15:55:56;5.70;;;1.80;;
23406;SDS011;11876;53.438;18.942;2023-10-31T15:58:59;6.30;;;1.90;;
23406;SDS011;11876;53.438;18.942;2023-10-31T16:02:04;2.75;;;1.48;;
23406;SDS011;11876;53.438;18.942;2023-10-31T16:05:06;3.90;;;1.60;;
23406;SDS011;11876;53.438;18.942;2023-10-31T16:08:09;1.73;;;1.50;;
23406;SDS011;11876;53.438;18.942;2023-10-31T16:11:11;1.45;;;1.35;;
23406;SDS011;11876;53.438;18.942;2023-10-31T16:14:14;1.45;;;1.33;;
23406;SDS011;11876;53.438;18.942;2023-10-31T16:17:23;6.13;;;1.40;;
23406;SDS011;11876;53.438;18.942;2023-10-31T16:20:26;1.80;;;1.40;;
23406;SDS011;11876;53.438;18.942;2023-10-31T16:23:29;1.65;;;1.40;;
23406;SDS011;11876;53.438;18.942;2023-10-31T16:26:31;1.90;;;1.50;;
23406;SDS011;11876;53.438;18.942;2023-10-31T16:29:34;3.17;;;1.70;;
23406;SDS011;11876;53.438;18.942;2023-10-31T16:32:36;4.60;;;1.95;;
23406;SDS011;11876;53.438;18.942;2023-10-31T16:35:38;3.58;;;2.13;;
23406;SDS011;11876;53.438;18.942;2023-10-31T16:38:41;3.33;;;2.03;;
23406;SDS011;11876;53.438;18.942;2023-10-31T16:41:43;3.67;;;2.65;;
23406;SDS011;11876;53.438;18.942;2023-10-31T16:44:46;3.58;;;2.78;;
23406;SDS011;11876;53.438;18.942;2023-10-31T16:47:48;3.80;;;3.15;;
23406;SDS011;11876;53.438;18.942;2023-10-31T16:50:51;5.93;;;3.97;;
23406;SDS011;11876;53.438;18.942;2023-10-31T16:53:53;4.38;;;3.30;;
23406;SDS011;11876;53.438;18.942;2023-10-31T16:56:55;7.15;;;4.68;;
23406;SDS011;11876;53.438;18.942;2023-10-31T16:59:58;7.18;;;5.07;;
23406;SDS011;11876;53.438;18.942;2023-10-31T17:03:00;9.70;;;6.05;;
23406;SDS011;11876;53.438;18.942;2023-10-31T17:06:02;11.48;;;6.63;;
23406;SDS011;11876;53.438;18.942;2023-10-31T17:09:05;13.25;;;9.50;;
23406;SDS011;11876;53.438;18.942;2023-10-31T17:12:07;8.13;;;6.07;;
23406;SDS011;11876;53.438;18.942;2023-10-31T17:15:10;9.52;;;6.82;;
23406;SDS011;11876;53.438;18.942;2023-10-31T17:18:12;19.20;;;11.00;;
23406;SDS011;11876;53.438;18.942;2023-10-31T17:21:17;8.90;;;8.00;;
23406;SDS011;11876;53.438;18.942;2023-10-31T17:24:20;9.95;;;7.72;;
23406;SDS011;11876;53.438;18.942;2023-10-31T17:27:22;9.25;;;6.25;;
23406;SDS011;11876;53.438;18.942;2023-10-31T17:30:25;9.45;;;5.97;;
23406;SDS011;11876;53.438;18.942;2023-10-31T17:33:27;7.80;;;6.00;;
23406;SDS011;11876;53.438;18.942;2023-10-31T17:36:30;9.02;;;6.25;;
23406;SDS011;11876;53.438;18.942;2023-10-31T17:39:33;7.60;;;6.07;;
23406;SDS011;11876;53.438;18.942;2023-10-31T17:42:36;8.75;;;6.55;;
23406;SDS011;11876;53.438;18.942;2023-10-31T17:45:38;8.68;;;6.70;;
23406;SDS011;11876;53.438;18.942;2023-10-31T17:48:40;10.40;;;6.30;;
23406;SDS011;11876;53.438;18.942;2023-10-31T17:51:43;8.73;;;6.43;;
23406;SDS011;11876;53.438;18.942;2023-10-31T17:54:45;8.77;;;5.18;;
23406;SDS011;11876;53.438;18.942;2023-10-31T17:57:48;9.02;;;6.00;;
23406;SDS011;11876;53.438;18.942;2023-10-31T18:00:50;6.07;;;4.10;;
23406;SDS011;11876;53.438;18.942;2023-10-31T18:03:53;7.95;;;6.43;;
23406;SDS011;11876;53.438;18.942;2023-10-31T18:06:55;5.35;;;4.03;;
23406;SDS011;11876;53.438;18.942;2023-10-31T18:09:58;5.70;;;4.80;;
23406;SDS011;11876;53.438;18.942;2023-10-31T18:13:00;12.52;;;7.57;;